Time;durP1;ratioP1;P1;durP2;ratioP2;P2;SDS_P1;SDS_P2;PMS_P1;PMS_P2;Temp;Humidity;BMP_temperature;BMP_pressure;BME280_temperature;BME280_humidity;BME280_pressure;Samples;Min_cycle;Max_cycle;Signal;HPM_P1;HPM_P2
2023/03/05 00:00:40;;;;;;;;;;;3.50;99.90;;;;;;5006525;28;19944;-73
2023/03/05 00:03:06;;;;;;;;;;;4.60;99.90;;;;;;5005169;28;19972;-74
2023/03/05 00:05:33;;;;;;;;;;;3.50;99.90;;;;;;5024258;28;20347;-74
2023/03/05 00:07:59;;;;;;;;;;;4.90;99.90;;;;;;5021357;28;19980;-74
2023/03/05 00:10:24;;;;;;;;;;;5.10;99.90;;;;;;5006036;28;19925;-74
2023/03/05 00:12:50;;;;;;;;;;;3.50;99.90;;;;;;5003927;28;20012;-74
2023/03/05 00:15:15;;;;;;;;;;;3.80;99.90;;;;;;5001068;28;20020;-73
2023/03/05 00:17:41;;;;;;;;;;;3.50;99.90;;;;;;5013707;28;19932;-74
2023/03/05 00:20:07;;;;;;;;;;;4.10;99.90;;;;;;5003274;28;19925;-73
2023/03/05 00:22:33;;;;;;;;;;;3.50;99.90;;;;;;5003297;28;19960;-74
2023/03/05 00:24:59;;;;;;;;;;;3.80;99.90;;;;;;5001442;28;19925;-73
2023/03/05 00:27:24;;;;;;;;;;;3.60;99.90;;;;;;4998282;28;20301;-74
2023/03/05 00:29:50;;;;;;;;;;;3.60;99.90;;;;;;5003934;28;19925;-74
2023/03/05 00:32:15;;;;;;;;;;;4.90;99.90;;;;;;5005029;28;19975;-73
2023/03/05 00:34:41;;;;;;;;;;;3.60;99.90;;;;;;5004868;28;19925;-73
2023/03/05 00:37:06;;;;;;;;;;;5.50;99.90;;;;;;5017745;28;20339;-73
2023/03/05 00:39:32;;;;;;;;;;;5.20;99.90;;;;;;5013685;28;19973;-73
2023/03/05 00:41:57;;;;;;;;;;;5.20;99.90;;;;;;5023918;28;20383;-73
2023/03/05 00:44:24;;;;;;;;;;;3.80;99.90;;;;;;5003651;28;19949;-73
2023/03/05 00:46:49;;;;;;;;;;;5.30;99.90;;;;;;5007202;28;19968;-73
2023/03/05 00:49:15;;;;;;;;;;;5.70;99.90;;;;;;5004536;28;19967;-73
2023/03/05 00:51:40;;;;;;;;;;;3.60;99.90;;;;;;5020618;28;19925;-73
2023/03/05 00:54:06;;;;;;;;;;;3.60;99.90;;;;;;5023478;28;20369;-74
2023/03/05 00:56:32;;;;;;;;;;;3.60;99.90;;;;;;5004654;28;20472;-73
2023/03/05 00:58:57;;;;;;;;;;;5.70;99.90;;;;;;5021942;28;19933;-73
2023/03/05 01:01:23;;;;;;;;;;;3.50;99.90;;;;;;5024386;28;19968;-73
2023/03/05 01:03:49;;;;;;;;;;;4.90;99.90;;;;;;5020542;28;20556;-74
2023/03/05 01:06:18;;;;;;;;;;;5.50;99.90;;;;;;5022672;28;19929;-74
2023/03/05 01:08:44;;;;;;;;;;;3.30;99.90;;;;;;5016162;28;20273;-74
2023/03/05 01:11:09;;;;;;;;;;;5.10;99.90;;;;;;5023933;28;19932;-74
2023/03/05 01:13:35;;;;;;;;;;;3.30;99.90;;;;;;5004084;28;19925;-74
2023/03/05 01:16:01;;;;;;;;;;;3.30;99.90;;;;;;5021590;28;20380;-74
2023/03/05 01:18:27;;;;;;;;;;;3.30;99.90;;;;;;5004134;28;19932;-74
2023/03/05 01:20:52;;;;;;;;;;;3.30;99.90;;;;;;5023608;28;20474;-74
2023/03/05 01:23:18;;;;;;;;;;;3.40;99.90;;;;;;5001421;28;19925;-74
2023/03/05 01:25:44;;;;;;;;;;;3.50;99.90;;;;;;5003223;28;20063;-74
2023/03/05 01:28:09;;;;;;;;;;;3.50;99.90;;;;;;5006236;28;19932;-75
2023/03/05 01:30:35;;;;;;;;;;;3.50;99.90;;;;;;4997960;28;19933;-74
2023/03/05 01:33:01;;;;;;;;;;;3.50;99.90;;;;;;5022537;28;19956;-75
2023/03/05 01:35:26;;;;;;;;;;;3.40;99.90;;;;;;5007540;28;20352;-72
2023/03/05 01:37:52;;;;;;;;;;;4.60;99.90;;;;;;5005207;28;19932;-72
2023/03/05 01:40:19;;;;;;;;;;;3.30;99.90;;;;;;5021212;28;20016;-72
2023/03/05 01:42:54;;;;;;;;;;;3.30;99.90;;;;;;5024023;28;19955;-72
2023/03/05 01:45:19;;;;;;;;;;;5.40;99.90;;;;;;5002644;28;19925;-72
2023/03/05 01:47:45;;;;;;;;;;;3.30;99.90;;;;;;5024071;28;19932;-72
2023/03/05 01:50:12;;;;;;;;;;;3.30;99.90;;;;;;5002520;28;19926;-72
2023/03/05 01:52:40;;;;;;;;;;;4.20;99.90;;;;;;5004549;28;20283;-72
2023/03/05 01:55:22;;;;;;;;;;;3.20;99.90;;;;;;5024128;28;19948;-72
2023/03/05 01:58:08;;;;;;;;;;;3.20;99.90;;;;;;5000302;28;19968;-72
2023/03/05 02:00:37;;;;;;;;;;;3.30;99.90;;;;;;5020432;28;20063;-73
2023/03/05 02:03:04;;;;;;;;;;;3.40;99.90;;;;;;5022396;28;20388;-73
2023/03/05 02:05:31;;;;;;;;;;;3.20;99.90;;;;;;5019821;28;19932;-73
2023/03/05 02:07:58;;;;;;;;;;;3.80;99.90;;;;;;5000476;28;19925;-73
2023/03/05 02:10:28;;;;;;;;;;;3.10;99.90;;;;;;5023043;28;19929;-73
2023/03/05 02:12:55;;;;;;;;;;;3.10;99.90;;;;;;5003761;28;20296;-74
2023/03/05 02:15:21;;;;;;;;;;;3.00;99.90;;;;;;5003810;28;19933;-74
2023/03/05 02:17:47;;;;;;;;;;;3.60;99.90;;;;;;5021817;28;20288;-74
2023/03/05 02:20:15;;;;;;;;;;;5.30;99.90;;;;;;5020268;28;20389;-74
2023/03/05 02:22:40;;;;;;;;;;;2.80;99.90;;;;;;5005578;28;19956;-74
2023/03/05 02:25:12;;;;;;;;;;;3.70;99.90;;;;;;5002204;28;20369;-74
2023/03/05 02:27:39;;;;;;;;;;;2.80;99.90;;;;;;5014287;28;19925;-73
2023/03/05 02:30:05;;;;;;;;;;;2.80;99.90;;;;;;5020535;28;19933;-74
2023/03/05 02:32:31;;;;;;;;;;;2.80;99.90;;;;;;5005243;28;19925;-73
2023/03/05 02:34:56;;;;;;;;;;;2.80;99.90;;;;;;5011409;28;20396;-73
2023/03/05 02:37:22;;;;;;;;;;;2.90;99.90;;;;;;5022108;28;19925;-73
2023/03/05 02:39:47;;;;;;;;;;;2.90;99.90;;;;;;5021323;28;19932;-73
2023/03/05 02:42:13;;;;;;;;;;;2.90;99.90;;;;;;5020661;28;19936;-73
2023/03/05 02:44:38;;;;;;;;;;;3.00;99.90;;;;;;5018360;28;20357;-73
2023/03/05 02:47:04;;;;;;;;;;;3.10;99.90;;;;;;5023039;28;20288;-73
2023/03/05 02:49:29;;;;;;;;;;;3.10;99.90;;;;;;5001836;28;20753;-73
2023/03/05 02:51:55;;;;;;;;;;;4.70;99.90;;;;;;5005255;28;20126;-72
2023/03/05 02:54:21;;;;;;;;;;;4.40;99.90;;;;;;5001034;28;19929;-73
2023/03/05 02:56:46;;;;;;;;;;;5.20;99.90;;;;;;5003690;28;19929;-73
2023/03/05 02:59:12;;;;;;;;;;;3.20;99.90;;;;;;5022082;28;19929;-73
2023/03/05 03:01:37;;;;;;;;;;;3.20;99.90;;;;;;5001745;28;20359;-73
2023/03/05 03:04:03;;;;;;;;;;;4.20;99.90;;;;;;5005392;28;20340;-72
2023/03/05 03:06:28;;;;;;;;;;;3.10;99.90;;;;;;5002227;28;20289;-73
2023/03/05 03:08:54;;;;;;;;;;;3.10;99.90;;;;;;5020996;28;19960;-74
2023/03/05 03:11:20;;;;;;;;;;;3.10;99.90;;;;;;5002623;28;20095;-71
2023/03/05 03:13:45;;;;;;;;;;;3.10;99.90;;;;;;5021813;28;20440;-74
2023/03/05 03:16:12;;;;;;;;;;;4.80;99.90;;;;;;5004931;28;20019;-71
2023/03/05 03:18:38;;;;;;;;;;;3.30;99.90;;;;;;5024466;28;20296;-72
2023/03/05 03:21:04;;;;;;;;;;;3.00;99.90;;;;;;5008329;28;20035;-73
2023/03/05 03:23:30;;;;;;;;;;;2.90;99.90;;;;;;5022079;28;19980;-73
2023/03/05 03:25:55;;;;;;;;;;;4.80;99.90;;;;;;5002183;28;20389;-73
2023/03/05 03:28:21;;;;;;;;;;;2.80;99.90;;;;;;5008199;28;20392;-73
2023/03/05 03:30:46;;;;;;;;;;;2.80;99.90;;;;;;5005238;28;20024;-73
2023/03/05 03:33:12;;;;;;;;;;;2.80;99.90;;;;;;5007580;28;19972;-73
2023/03/05 03:35:37;;;;;;;;;;;2.80;99.90;;;;;;5005208;28;20279;-73
2023/03/05 03:38:03;;;;;;;;;;;2.80;99.90;;;;;;5023327;28;19925;-73
2023/03/05 03:40:29;;;;;;;;;;;2.80;99.90;;;;;;5025299;28;19925;-73
2023/03/05 03:42:54;;;;;;;;;;;3.00;99.90;;;;;;5002336;28;19927;-73
2023/03/05 03:45:21;;;;;;;;;;;4.60;99.90;;;;;;5003579;28;20036;-73
2023/03/05 03:47:47;;;;;;;;;;;3.10;99.90;;;;;;5013086;28;20377;-74
2023/03/05 03:50:12;;;;;;;;;;;3.10;99.90;;;;;;5007323;28;19929;-73
2023/03/05 03:52:38;;;;;;;;;;;3.50;99.90;;;;;;5003569;28;20285;-73
2023/03/05 03:55:04;;;;;;;;;;;4.90;99.90;;;;;;5022157;28;20400;-73
2023/03/05 03:57:30;;;;;;;;;;;3.00;99.90;;;;;;5024258;28;20364;-73
2023/03/05 03:59:55;;;;;;;;;;;2.90;99.90;;;;;;5004847;28;20031;-73
2023/03/05 04:02:21;;;;;;;;;;;2.90;99.90;;;;;;5007650;28;20408;-73
2023/03/05 04:04:47;;;;;;;;;;;2.90;99.90;;;;;;5000787;28;19921;-73
2023/03/05 04:07:12;;;;;;;;;;;2.90;99.90;;;;;;5007682;28;19929;-73
2023/03/05 04:09:38;;;;;;;;;;;3.90;99.90;;;;;;5022945;28;19929;-73
2023/03/05 04:12:03;;;;;;;;;;;2.90;99.90;;;;;;5005697;28;19932;-73
2023/03/05 04:14:29;;;;;;;;;;;3.00;99.90;;;;;;5020711;28;19940;-73
2023/03/05 04:16:55;;;;;;;;;;;4.20;99.90;;;;;;5023123;28;20402;-73
2023/03/05 04:19:20;;;;;;;;;;;3.10;99.90;;;;;;5024296;28;19933;-73
2023/03/05 04:21:46;;;;;;;;;;;4.20;99.90;;;;;;5021945;28;19971;-73
2023/03/05 04:24:11;;;;;;;;;;;3.00;99.90;;;;;;5007374;28;19937;-73
2023/03/05 04:26:37;;;;;;;;;;;2.90;99.90;;;;;;5003544;28;20316;-73
2023/03/05 04:29:02;;;;;;;;;;;4.00;99.90;;;;;;5004538;28;19926;-73
2023/03/05 04:31:28;;;;;;;;;;;4.40;99.90;;;;;;5005767;28;19975;-73
2023/03/05 04:33:53;;;;;;;;;;;4.00;99.90;;;;;;5004581;28;20258;-73
2023/03/05 04:36:20;;;;;;;;;;;3.90;99.90;;;;;;5006679;28;19928;-73
2023/03/05 04:38:45;;;;;;;;;;;2.70;99.90;;;;;;5023165;28;19931;-73
2023/03/05 04:41:11;;;;;;;;;;;4.40;99.90;;;;;;5006463;28;19929;-73
2023/03/05 04:43:36;;;;;;;;;;;2.70;99.90;;;;;;5004173;28;20344;-73
2023/03/05 04:46:02;;;;;;;;;;;3.90;99.90;;;;;;5023792;28;19925;-73
2023/03/05 04:48:27;;;;;;;;;;;2.70;99.90;;;;;;5005369;28;19929;-73
2023/03/05 04:50:53;;;;;;;;;;;3.30;99.90;;;;;;5006054;28;19936;-73
2023/03/05 04:53:18;;;;;;;;;;;2.80;99.90;;;;;;5022263;28;20300;-73
2023/03/05 04:55:44;;;;;;;;;;;4.20;99.90;;;;;;5006571;28;20407;-73
2023/03/05 04:58:09;;;;;;;;;;;2.90;99.90;;;;;;5018917;28;19958;-73
2023/03/05 05:00:35;;;;;;;;;;;4.80;99.90;;;;;;5021224;28;19926;-74
2023/03/05 05:03:00;;;;;;;;;;;3.00;99.90;;;;;;5005870;28;19925;-73
2023/03/05 05:05:26;;;;;;;;;;;3.00;99.90;;;;;;5004636;28;19997;-73
2023/03/05 05:07:53;;;;;;;;;;;3.00;99.90;;;;;;5003753;28;19926;-73
2023/03/05 05:10:18;;;;;;;;;;;3.00;99.90;;;;;;5005232;28;19933;-73
2023/03/05 05:12:44;;;;;;;;;;;4.70;99.90;;;;;;5003908;28;19929;-73
2023/03/05 05:15:10;;;;;;;;;;;3.80;99.90;;;;;;5005831;28;19925;-73
2023/03/05 05:17:35;;;;;;;;;;;2.90;99.90;;;;;;5003131;28;19941;-73
2023/03/05 05:20:03;;;;;;;;;;;2.80;99.90;;;;;;5006220;28;20019;-73
2023/03/05 05:22:29;;;;;;;;;;;2.80;99.90;;;;;;5002674;28;20484;-73
2023/03/05 05:24:54;;;;;;;;;;;3.70;99.90;;;;;;5019234;28;20020;-73
2023/03/05 05:27:20;;;;;;;;;;;2.70;99.90;;;;;;5021991;28;19951;-73
2023/03/05 05:29:49;;;;;;;;;;;2.70;99.90;;;;;;5003265;28;19925;-73
2023/03/05 05:32:15;;;;;;;;;;;2.70;99.90;;;;;;5005410;28;19967;-73
2023/03/05 05:34:40;;;;;;;;;;;2.70;99.90;;;;;;5020960;28;20016;-73
2023/03/05 05:37:06;;;;;;;;;;;2.80;99.90;;;;;;5005728;28;20472;-73
2023/03/05 05:39:32;;;;;;;;;;;2.70;99.90;;;;;;5015963;28;19925;-73
2023/03/05 05:41:57;;;;;;;;;;;2.70;99.90;;;;;;5020572;28;19925;-73
2023/03/05 05:44:23;;;;;;;;;;;3.80;99.90;;;;;;5022192;28;19929;-73
2023/03/05 05:46:51;;;;;;;;;;;5.10;99.90;;;;;;5022157;28;19925;-73
2023/03/05 05:49:17;;;;;;;;;;;2.50;99.90;;;;;;5004716;28;20270;-73
2023/03/05 05:51:42;;;;;;;;;;;3.90;99.90;;;;;;5003871;28;19933;-73
2023/03/05 05:54:09;;;;;;;;;;;4.10;99.90;;;;;;5021401;28;19925;-73
2023/03/05 05:56:36;;;;;;;;;;;4.30;99.90;;;;;;4999412;28;19926;-73
2023/03/05 05:59:01;;;;;;;;;;;3.70;99.90;;;;;;5005846;28;19926;-73
2023/03/05 06:01:28;;;;;;;;;;;2.60;99.90;;;;;;5002282;28;19972;-73
2023/03/05 06:03:54;;;;;;;;;;;2.60;99.90;;;;;;5022954;28;19937;-73
2023/03/05 06:06:21;;;;;;;;;;;2.60;99.90;;;;;;5003007;28;20008;-73
2023/03/05 06:08:46;;;;;;;;;;;2.60;99.90;;;;;;5022539;28;19926;-73
2023/03/05 06:11:12;;;;;;;;;;;2.50;99.90;;;;;;5002817;28;19929;-72
2023/03/05 06:13:38;;;;;;;;;;;3.00;99.90;;;;;;5018390;28;20444;-72
2023/03/05 06:16:05;;;;;;;;;;;2.50;99.90;;;;;;5022912;28;20011;-73
2023/03/05 06:18:31;;;;;;;;;;;2.50;99.90;;;;;;5001618;28;19921;-73
2023/03/05 06:20:58;;;;;;;;;;;2.40;99.90;;;;;;5023678;28;19925;-72
2023/03/05 06:23:23;;;;;;;;;;;2.40;99.90;;;;;;5011341;28;20445;-73
2023/03/05 06:25:49;;;;;;;;;;;4.00;99.90;;;;;;5001459;28;19929;-72
2023/03/05 06:28:15;;;;;;;;;;;2.40;99.90;;;;;;5004825;28;19925;-73
2023/03/05 06:30:40;;;;;;;;;;;2.50;99.90;;;;;;5003456;28;19924;-73
2023/03/05 06:33:06;;;;;;;;;;;2.60;99.90;;;;;;5002904;28;19925;-73
2023/03/05 06:35:32;;;;;;;;;;;2.60;99.90;;;;;;5022225;28;19932;-73
2023/03/05 06:37:57;;;;;;;;;;;2.70;99.90;;;;;;5002254;28;19932;-73
2023/03/05 06:40:23;;;;;;;;;;;2.70;99.90;;;;;;5018940;28;19936;-73
2023/03/05 06:42:48;;;;;;;;;;;2.70;99.90;;;;;;5023090;28;19925;-73
2023/03/05 06:45:14;;;;;;;;;;;2.80;99.90;;;;;;5020708;28;19933;-73
2023/03/05 06:47:39;;;;;;;;;;;2.80;99.90;;;;;;4998899;28;20071;-73
2023/03/05 06:50:05;;;;;;;;;;;4.90;99.90;;;;;;5023769;28;19937;-73
2023/03/05 06:52:30;;;;;;;;;;;2.90;99.90;;;;;;5025409;28;20010;-73
2023/03/05 06:54:56;;;;;;;;;;;2.90;99.90;;;;;;5005348;28;20132;-73
2023/03/05 06:57:22;;;;;;;;;;;3.40;99.90;;;;;;5026657;28;20273;-73
2023/03/05 06:59:47;;;;;;;;;;;2.90;99.90;;;;;;5005773;28;19981;-73
2023/03/05 07:02:13;;;;;;;;;;;4.40;99.90;;;;;;5025650;28;19925;-73
2023/03/05 07:04:38;;;;;;;;;;;2.90;99.90;;;;;;5022597;28;19936;-73
2023/03/05 07:07:04;;;;;;;;;;;3.70;99.90;;;;;;5022219;28;19991;-71
2023/03/05 07:09:30;;;;;;;;;;;2.90;99.90;;;;;;5005930;28;19925;-70
2023/03/05 07:11:55;;;;;;;;;;;3.00;99.90;;;;;;5005951;28;20384;-71
2023/03/05 07:14:21;;;;;;;;;;;4.70;99.90;;;;;;5021117;28;19925;-70
2023/03/05 07:16:47;;;;;;;;;;;4.50;99.90;;;;;;5004846;28;19932;-71
2023/03/05 07:19:13;;;;;;;;;;;3.00;99.90;;;;;;5016809;28;19984;-70
2023/03/05 07:21:38;;;;;;;;;;;3.10;99.90;;;;;;5023178;28;19933;-70
2023/03/05 07:24:04;;;;;;;;;;;3.20;99.90;;;;;;5021996;28;19925;-71
2023/03/05 07:26:32;;;;;;;;;;;3.30;99.90;;;;;;5024102;28;19972;-71
2023/03/05 07:28:58;;;;;;;;;;;4.40;99.90;;;;;;5024255;28;19932;-71
2023/03/05 07:31:29;;;;;;;;;;;3.40;99.90;;;;;;5023312;28;19933;-71
2023/03/05 07:33:55;;;;;;;;;;;3.50;99.90;;;;;;5003938;28;19925;-71
2023/03/05 07:36:21;;;;;;;;;;;3.60;99.90;;;;;;5022725;28;20431;-72
2023/03/05 07:38:47;;;;;;;;;;;3.70;99.90;;;;;;5007979;28;20035;-71
2023/03/05 07:41:18;;;;;;;;;;;5.10;99.90;;;;;;5023075;28;20351;-70
2023/03/05 07:43:44;;;;;;;;;;;4.80;99.90;;;;;;5018384;28;19983;-70
2023/03/05 07:46:10;;;;;;;;;;;5.00;99.90;;;;;;5018661;28;19925;-71
2023/03/05 07:48:36;;;;;;;;;;;4.20;99.90;;;;;;5022226;28;19925;-71
2023/03/05 07:51:03;;;;;;;;;;;4.30;99.90;;;;;;5007026;28;19925;-71
2023/03/05 07:53:28;;;;;;;;;;;5.40;99.90;;;;;;5005681;28;19941;-72
2023/03/05 07:55:54;;;;;;;;;;;5.00;99.90;;;;;;5006564;28;19926;-70
2023/03/05 07:58:20;;;;;;;;;;;4.60;99.90;;;;;;5002945;28;19925;-69
2023/03/05 08:00:45;;;;;;;;;;;4.70;99.90;;;;;;5020049;28;19929;-72
2023/03/05 08:03:11;;;;;;;;;;;6.30;99.90;;;;;;4996801;28;19925;-73
2023/03/05 08:05:40;;;;;;;;;;;6.50;99.90;;;;;;4994381;28;20300;-72
2023/03/05 08:08:06;;;;;;;;;;;5.10;99.90;;;;;;5007812;28;20008;-71
2023/03/05 08:10:32;;;;;;;;;;;6.00;99.90;;;;;;5019093;28;19972;-71
2023/03/05 08:12:57;;;;;;;;;;;5.30;99.90;;;;;;4995941;28;19965;-74
2023/03/05 08:15:23;;;;;;;;;;;7.10;99.90;;;;;;4998119;28;19945;-71
2023/03/05 08:17:48;;;;;;;;;;;6.00;99.90;;;;;;5018754;28;19996;-73
2023/03/05 08:20:14;;;;;;;;;;;6.50;99.90;;;;;;5002321;28;19932;-69
2023/03/05 08:22:39;;;;;;;;;;;7.10;99.90;;;;;;5020805;28;19925;-73
2023/03/05 08:25:05;;;;;;;;;;;8.60;99.90;;;;;;5024586;28;19925;-70
2023/03/05 08:27:31;;;;;;;;;;;7.40;99.90;;;;;;5004039;28;19933;-70
2023/03/05 08:29:57;;;;;;;;;;;7.20;99.90;;;;;;5003460;28;19949;-73
2023/03/05 08:32:23;;;;;;;;;;;8.60;99.90;;;;;;5004581;28;20357;-73
2023/03/05 08:34:48;;;;;;;;;;;7.90;99.90;;;;;;5016534;28;20291;-76
2023/03/05 08:37:14;;;;;;;;;;;7.80;99.90;;;;;;5022856;28;19936;-76
2023/03/05 08:39:39;;;;;;;;;;;8.40;99.90;;;;;;5021408;28;19925;-71
2023/03/05 08:42:05;;;;;;;;;;;8.30;99.90;;;;;;5007448;28;19925;-74
2023/03/05 08:44:30;;;;;;;;;;;8.50;99.90;;;;;;5014620;28;20140;-75
2023/03/05 08:46:56;;;;;;;;;;;8.90;99.90;;;;;;5019282;28;19933;-77
2023/03/05 08:49:21;;;;;;;;;;;8.30;99.90;;;;;;4998289;28;20023;-73
2023/03/05 08:51:47;;;;;;;;;;;8.50;99.90;;;;;;5021848;28;19932;-73
2023/03/05 08:54:14;;;;;;;;;;;9.20;99.90;;;;;;5000544;28;19933;-73
2023/03/05 08:56:39;;;;;;;;;;;7.80;99.90;;;;;;5003619;28;19925;-73
2023/03/05 08:59:05;;;;;;;;;;;7.50;99.90;;;;;;5004217;28;19931;-72
2023/03/05 09:01:31;;;;;;;;;;;7.00;99.90;;;;;;5001630;28;20004;-74
2023/03/05 09:03:59;;;;;;;;;;;7.80;99.90;;;;;;5023028;28;20304;-73
2023/03/05 09:06:25;;;;;;;;;;;8.70;99.90;;;;;;5002280;28;19925;-73
2023/03/05 09:08:51;;;;;;;;;;;9.10;99.90;;;;;;5019375;28;20255;-73
2023/03/05 09:11:16;;;;;;;;;;;10.10;99.90;;;;;;5018550;28;20418;-74
2023/03/05 09:13:42;;;;;;;;;;;11.00;99.90;;;;;;5019983;28;20300;-75
2023/03/05 09:16:10;;;;;;;;;;;11.80;99.90;;;;;;5000910;28;19963;-73
2023/03/05 09:18:36;;;;;;;;;;;12.40;99.90;;;;;;5001873;28;20357;-73
2023/03/05 09:21:06;;;;;;;;;;;12.60;99.90;;;;;;5002831;28;19979;-74
2023/03/05 09:23:31;;;;;;;;;;;12.70;99.90;;;;;;5001425;28;19925;-75
2023/03/05 09:25:57;;;;;;;;;;;13.10;99.90;;;;;;5001629;28;20435;-72
2023/03/05 09:28:22;;;;;;;;;;;13.10;99.70;;;;;;4997670;28;20332;-72
2023/03/05 09:30:48;;;;;;;;;;;13.00;99.40;;;;;;5023459;28;20004;-72
2023/03/05 09:33:13;;;;;;;;;;;12.30;99.80;;;;;;5016040;28;19929;-71
2023/03/05 09:35:39;;;;;;;;;;;11.70;99.90;;;;;;5021367;28;19925;-72
2023/03/05 09:38:05;;;;;;;;;;;10.90;99.90;;;;;;5020687;28;20377;-72
2023/03/05 09:40:35;;;;;;;;;;;10.90;99.90;;;;;;5020917;28;20377;-72
2023/03/05 09:43:09;;;;;;;;;;;12.10;99.90;;;;;;5022447;28;19932;-73
2023/03/05 09:45:40;;;;;;;;;;;13.60;99.70;;;;;;5021509;28;20289;-73
2023/03/05 09:48:06;;;;;;;;;;;14.80;98.60;;;;;;5004837;28;20276;-73
2023/03/05 09:50:35;;;;;;;;;;;15.50;95.00;;;;;;5020995;28;20374;-73
2023/03/05 09:53:12;;;;;;;;;;;16.00;95.60;;;;;;5005038;28;19925;-72
2023/03/05 09:55:41;;;;;;;;;;;16.30;93.90;;;;;;5002095;28;20558;-72
2023/03/05 09:58:11;;;;;;;;;;;16.50;93.80;;;;;;5021393;28;19925;-73
2023/03/05 10:00:56;;;;;;;;;;;16.70;92.40;;;;;;5022220;28;19925;-73
2023/03/05 10:03:27;;;;;;;;;;;17.00;92.10;;;;;;5015419;28;19926;-72
2023/03/05 10:05:52;;;;;;;;;;;17.00;92.10;;;;;;5021417;28;20329;-73
2023/03/05 10:08:21;;;;;;;;;;;16.40;89.40;;;;;;4999289;28;19936;-74
2023/03/05 10:10:49;;;;;;;;;;;17.20;90.80;;;;;;4998051;28;19929;-75
2023/03/05 10:13:22;;;;;;;;;;;17.50;90.50;;;;;;5003808;28;19929;-73
2023/03/05 10:16:08;;;;;;;;;;;18.20;89.10;;;;;;4998892;28;19976;-73
2023/03/05 10:18:40;;;;;;;;;;;18.60;85.50;;;;;;4979679;28;19933;-73
2023/03/05 10:21:12;;;;;;;;;;;18.70;86.70;;;;;;5022368;28;19926;-74
2023/03/05 10:23:53;;;;;;;;;;;19.20;81.80;;;;;;5016568;28;20004;-73
2023/03/05 10:26:37;;;;;;;;;;;18.90;81.60;;;;;;5003313;28;20418;-74
2023/03/05 10:29:16;;;;;;;;;;;18.60;82.10;;;;;;5005201;28;19932;-73
2023/03/05 10:31:54;;;;;;;;;;;18.50;84.30;;;;;;5022737;28;20004;-73
2023/03/05 10:34:38;;;;;;;;;;;17.80;82.20;;;;;;5003448;28;20292;-76
2023/03/05 10:37:11;;;;;;;;;;;16.40;83.70;;;;;;5007218;28;19929;-78
2023/03/05 10:39:49;;;;;;;;;;;16.10;86.20;;;;;;5008218;28;19920;-73
2023/03/05 10:42:23;;;;;;;;;;;15.90;85.90;;;;;;5002430;28;19929;-74
2023/03/05 10:44:53;;;;;;;;;;;15.50;89.00;;;;;;4994563;28;20380;-72
2023/03/05 10:47:24;;;;;;;;;;;15.80;89.30;;;;;;4996846;28;20271;-73
2023/03/05 10:49:51;;;;;;;;;;;16.00;89.30;;;;;;4994266;28;19971;-74
2023/03/05 10:52:17;;;;;;;;;;;16.90;88.10;;;;;;4993641;28;20396;-73
2023/03/05 10:54:43;;;;;;;;;;;17.20;85.70;;;;;;4994447;28;20373;-73
2023/03/05 10:57:19;;;;;;;;;;;17.10;86.20;;;;;;4998465;28;19949;-72
2023/03/05 10:59:53;;;;;;;;;;;16.30;86.80;;;;;;4992710;28;19933;-72
2023/03/05 11:02:20;;;;;;;;;;;15.50;88.80;;;;;;5004749;28;20289;-72
2023/03/05 11:04:48;;;;;;;;;;;15.20;89.10;;;;;;5005140;28;20000;-74
2023/03/05 11:07:14;;;;;;;;;;;14.50;90.90;;;;;;5004915;28;19925;-73
2023/03/05 11:09:40;;;;;;;;;;;14.20;90.00;;;;;;5004414;28;19925;-72
2023/03/05 11:12:10;;;;;;;;;;;13.80;91.30;;;;;;5001828;28;19930;-72
2023/03/05 11:14:37;;;;;;;;;;;13.20;91.80;;;;;;5016963;28;20011;-72
2023/03/05 11:17:21;;;;;;;;;;;12.80;93.00;;;;;;5023683;28;19988;-72
2023/03/05 11:19:46;;;;;;;;;;;13.10;94.30;;;;;;5003158;28;19931;-73
2023/03/05 11:22:14;;;;;;;;;;;14.10;94.10;;;;;;5021753;28;20272;-73
2023/03/05 11:24:40;;;;;;;;;;;13.70;92.50;;;;;;5016957;28;19925;-74
2023/03/05 11:27:24;;;;;;;;;;;12.60;93.40;;;;;;5025707;28;20144;-72
2023/03/05 11:29:50;;;;;;;;;;;12.00;94.20;;;;;;5001170;28;19925;-73
2023/03/05 11:32:24;;;;;;;;;;;11.40;95.80;;;;;;5023741;28;19925;-73
2023/03/05 11:34:50;;;;;;;;;;;11.30;97.20;;;;;;4998002;28;19968;-74
2023/03/05 11:37:23;;;;;;;;;;;11.40;96.80;;;;;;4997597;28;19961;-79
2023/03/05 11:40:03;;;;;;;;;;;11.30;96.80;;;;;;5016708;28;19926;-76
2023/03/05 11:42:29;;;;;;;;;;;11.60;97.80;;;;;;5019359;28;19961;-78
2023/03/05 11:44:55;;;;;;;;;;;12.70;97.20;;;;;;5018689;28;20383;-78
2023/03/05 11:47:33;;;;;;;;;;;13.10;95.00;;;;;;5021246;28;19932;-79
2023/03/05 11:50:16;;;;;;;;;;;13.40;94.50;;;;;;5001638;28;19929;-79
2023/03/05 11:52:47;;;;;;;;;;;13.20;94.20;;;;;;5002030;28;19933;-78
2023/03/05 11:55:20;;;;;;;;;;;13.80;94.80;;;;;;5023048;28;19968;-83
2023/03/05 11:57:56;;;;;;;;;;;14.00;93.50;;;;;;5021335;28;19925;-79
2023/03/05 12:00:25;;;;;;;;;;;13.90;92.90;;;;;;5018736;28;19929;-78
2023/03/05 12:02:52;;;;;;;;;;;13.20;92.70;;;;;;4993608;28;19929;-78
2023/03/05 12:05:18;;;;;;;;;;;12.60;93.30;;;;;;4998904;28;19961;-80
2023/03/05 12:07:46;;;;;;;;;;;12.20;94.90;;;;;;5004834;28;19925;-75
2023/03/05 12:10:22;;;;;;;;;;;12.40;93.90;;;;;;5006019;28;20340;-74
2023/03/05 12:12:51;;;;;;;;;;;12.00;94.80;;;;;;5005451;28;20357;-77
2023/03/05 12:15:17;;;;;;;;;;;12.10;94.40;;;;;;5006317;28;19929;-74
2023/03/05 12:17:45;;;;;;;;;;;12.50;93.00;;;;;;5003038;28;19921;-74
2023/03/05 12:20:15;;;;;;;;;;;13.00;94.00;;;;;;5021455;28;19932;-73
2023/03/05 12:22:41;;;;;;;;;;;13.40;92.90;;;;;;5023651;28;19975;-75
2023/03/05 12:25:36;;;;;;;;;;;13.80;93.70;;;;;;5005759;28;20348;-73
2023/03/05 12:28:01;;;;;;;;;;;13.80;92.90;;;;;;4984203;28;19925;-74
2023/03/05 12:30:33;;;;;;;;;;;13.60;93.00;;;;;;5024923;28;19932;-71
2023/03/05 12:32:59;;;;;;;;;;;13.10;93.00;;;;;;5004000;28;19926;-70
2023/03/05 12:35:30;;;;;;;;;;;12.80;92.80;;;;;;5006343;28;19972;-72
2023/03/05 12:37:56;;;;;;;;;;;12.40;94.10;;;;;;5014724;28;20339;-72
2023/03/05 12:40:26;;;;;;;;;;;11.90;94.60;;;;;;4996635;28;20282;-72
2023/03/05 12:42:52;;;;;;;;;;;11.70;95.30;;;;;;4999537;28;19929;-72
2023/03/05 12:45:22;;;;;;;;;;;11.80;95.30;;;;;;5007059;28;19971;-71
2023/03/05 12:48:10;;;;;;;;;;;12.30;95.50;;;;;;5004079;28;19933;-71
2023/03/05 12:50:36;;;;;;;;;;;12.40;95.10;;;;;;5019324;28;20376;-72
2023/03/05 12:53:10;;;;;;;;;;;12.40;94.50;;;;;;5000786;28;19932;-73
2023/03/05 12:55:44;;;;;;;;;;;12.50;95.00;;;;;;5022447;28;20372;-74
2023/03/05 12:58:24;;;;;;;;;;;12.70;95.80;;;;;;5004442;28;20286;-76
2023/03/05 13:00:52;;;;;;;;;;;13.00;94.00;;;;;;5014806;28;20573;-73
2023/03/05 13:03:21;;;;;;;;;;;13.00;93.40;;;;;;5023209;28;20020;-73
2023/03/05 13:05:48;;;;;;;;;;;12.80;94.40;;;;;;4999114;28;20307;-73
2023/03/05 13:08:14;;;;;;;;;;;12.80;94.10;;;;;;4994697;28;19933;-73
2023/03/05 13:10:40;;;;;;;;;;;13.30;94.20;;;;;;5002586;28;20365;-71
2023/03/05 13:13:11;;;;;;;;;;;13.90;93.00;;;;;;5016972;28;19984;-74
2023/03/05 13:15:37;;;;;;;;;;;14.40;92.20;;;;;;5013820;28;19980;-71
2023/03/05 13:18:06;;;;;;;;;;;13.90;91.80;;;;;;5007971;28;19932;-72
2023/03/05 13:20:33;;;;;;;;;;;13.80;92.70;;;;;;5004580;28;20020;-71
2023/03/05 13:23:10;;;;;;;;;;;13.80;92.00;;;;;;5006448;28;19926;-73
2023/03/05 13:25:38;;;;;;;;;;;13.40;92.70;;;;;;5016866;28;19925;-73
2023/03/05 13:28:08;;;;;;;;;;;12.90;92.60;;;;;;4999543;28;19934;-77
2023/03/05 13:30:34;;;;;;;;;;;12.90;93.60;;;;;;5001212;28;20024;-75
2023/03/05 13:33:04;;;;;;;;;;;12.50;92.40;;;;;;5018986;28;20108;-73
2023/03/05 13:35:33;;;;;;;;;;;12.30;93.70;;;;;;5005379;28;19925;-73
2023/03/05 13:37:59;;;;;;;;;;;11.70;93.60;;;;;;5021974;28;20308;-73
2023/03/05 13:40:26;;;;;;;;;;;11.90;93.90;;;;;;5004429;28;19931;-71
2023/03/05 13:42:52;;;;;;;;;;;11.30;93.90;;;;;;5017033;28;19925;-73
2023/03/05 13:45:21;;;;;;;;;;;11.10;94.30;;;;;;5000946;28;20249;-73
2023/03/05 13:47:54;;;;;;;;;;;10.90;94.60;;;;;;4998749;28;20024;-73
2023/03/05 13:50:23;;;;;;;;;;;10.80;95.50;;;;;;5005580;28;20012;-73
2023/03/05 13:52:49;;;;;;;;;;;10.60;95.40;;;;;;5000045;28;19925;-71
2023/03/05 13:55:15;;;;;;;;;;;10.60;96.40;;;;;;5019042;28;20020;-71
2023/03/05 13:57:41;;;;;;;;;;;10.60;96.50;;;;;;5008927;28;19922;-72
2023/03/05 14:00:23;;;;;;;;;;;9.90;96.40;;;;;;5007175;28;19932;-71
2023/03/05 14:02:49;;;;;;;;;;;9.80;97.10;;;;;;5018279;28;19933;-72
2023/03/05 14:05:15;;;;;;;;;;;9.60;97.60;;;;;;5001899;28;19940;-73
2023/03/05 14:07:44;;;;;;;;;;;9.50;97.50;;;;;;5005772;28;20016;-72
2023/03/05 14:10:27;;;;;;;;;;;9.60;98.00;;;;;;5003706;28;19925;-75
2023/03/05 14:12:53;;;;;;;;;;;9.70;98.70;;;;;;5004844;28;20377;-72
2023/03/05 14:15:23;;;;;;;;;;;9.70;98.60;;;;;;5021374;28;19926;-74
2023/03/05 14:17:49;;;;;;;;;;;9.70;98.70;;;;;;4996940;28;19938;-74
2023/03/05 14:20:22;;;;;;;;;;;9.40;97.90;;;;;;5013284;28;19975;-72
2023/03/05 14:22:48;;;;;;;;;;;9.30;99.00;;;;;;5007686;28;19925;-72
2023/03/05 14:25:25;;;;;;;;;;;9.30;98.50;;;;;;5020111;28;19969;-72
2023/03/05 14:27:51;;;;;;;;;;;9.20;98.80;;;;;;5000115;28;20381;-75